nws-alerts: Checking more than four warning/county codes can delay the loading of your pages. You should use a cron job to get the data.
EllijayWeather Station Historical Data
Daily Summary for June 26, 2019 Units:  Both    English   Metric
Daily Weekly Monthly Yearly Custom
  High: Low: Average:
Temperature: 84.6 °F /  29.2 °C 61.3 °F /  16.3 °C 71.8 °F /  22.1 °C
Dew Point: 73.8 °F /  23.2 °C 60.4 °F /  15.8 °C 67.6 °F /  19.8 °C
Humidity: 99% 51% 88%
Wind Speed: 2.9mph /  4.7km/h - 0mph /  0km/h
Wind Gust: 6mph /  9.7km/h - -
Wind- - WSW
Pressure: 30.22 in /  1023.2 hPa 30.13 in /  1020.2 hPa -
Precipitation: 0 in /  0 mm    
Historical Graphs
 
 
Tabular Data for June 26, 2019
Time Temperature Dew Point Pressure Wind Wind Speed Wind Gust Humidity Rainfall Rate (Hourly) solar
00:04 66.9 °F /  19.4 °C 65.7 °F /  18.7 °C 30.14in /  1020.5hPa Calm     96% 0in /  0mm meteobridge W/m2
00:09 66.7 °F /  19.3 °C 65.5 °F /  18.6 °C 30.13in /  1020.2hPa Calm     96% 0in /  0mm meteobridge W/m2
00:14 66.6 °F /  19.2 °C 65.3 °F /  18.5 °C 30.14in /  1020.5hPa Calm     96% 0in /  0mm meteobridge W/m2
00:19 66.6 °F /  19.2 °C 65.3 °F /  18.5 °C 30.14in /  1020.5hPa Calm     96% 0in /  0mm meteobridge W/m2
00:24 66.6 °F /  19.2 °C 65.3 °F /  18.5 °C 30.14in /  1020.5hPa Calm     96% 0in /  0mm meteobridge W/m2
00:29 66.4 °F /  19.1 °C 65.1 °F /  18.4 °C 30.14in /  1020.5hPa Calm     96% 0in /  0mm meteobridge W/m2
00:34 66.4 °F /  19.1 °C 65.1 °F /  18.4 °C 30.14in /  1020.5hPa Calm     96% 0in /  0mm meteobridge W/m2
00:39 66.2 °F /  19 °C 64.9 °F /  18.3 °C 30.14in /  1020.5hPa Calm     96% 0in /  0mm meteobridge W/m2
00:44 66 °F /  18.9 °C 64.8 °F /  18.2 °C 30.14in /  1020.5hPa Calm     96% 0in /  0mm meteobridge W/m2
00:49 65.8 °F /  18.8 °C 64.6 °F /  18.1 °C 30.14in /  1020.5hPa Calm     96% 0in /  0mm meteobridge W/m2
00:54 65.8 °F /  18.8 °C 64.6 °F /  18.1 °C 30.14in /  1020.5hPa Calm     96% 0in /  0mm meteobridge W/m2
00:59 65.8 °F /  18.8 °C 64.6 °F /  18.1 °C 30.14in /  1020.5hPa Calm     96% 0in /  0mm meteobridge W/m2
01:04 65.7 °F /  18.7 °C 64.4 °F /  18 °C 30.14in /  1020.5hPa Calm     96% 0in /  0mm meteobridge W/m2
01:09 65.7 °F /  18.7 °C 64.4 °F /  18 °C 30.14in /  1020.5hPa Calm     96% 0in /  0mm meteobridge W/m2
01:14 65.5 °F /  18.6 °C 64.2 °F /  17.9 °C 30.14in /  1020.5hPa Calm     96% 0in /  0mm meteobridge W/m2
01:19 65.3 °F /  18.5 °C 64 °F /  17.8 °C 30.14in /  1020.5hPa Calm     96% 0in /  0mm meteobridge W/m2
01:24 65.3 °F /  18.5 °C 64 °F /  17.8 °C 30.14in /  1020.5hPa Calm     96% 0in /  0mm meteobridge W/m2
01:29 65.1 °F /  18.4 °C 64.2 °F /  17.9 °C 30.14in /  1020.5hPa Calm     97% 0in /  0mm meteobridge W/m2
01:34 65.1 °F /  18.4 °C 64.2 °F /  17.9 °C 30.15in /  1020.9hPa Calm     97% 0in /  0mm meteobridge W/m2
01:39 65.1 °F /  18.4 °C 64.2 °F /  17.9 °C 30.14in /  1020.5hPa Calm     97% 0in /  0mm meteobridge W/m2
01:44 64.9 °F /  18.3 °C 64 °F /  17.8 °C 30.14in /  1020.5hPa Calm     97% 0in /  0mm meteobridge W/m2
01:49 64.9 °F /  18.3 °C 64 °F /  17.8 °C 30.14in /  1020.5hPa Calm     97% 0in /  0mm meteobridge W/m2
01:54 64.9 °F /  18.3 °C 64 °F /  17.8 °C 30.14in /  1020.5hPa Calm     97% 0in /  0mm meteobridge W/m2
01:59 64.8 °F /  18.2 °C 63.9 °F /  17.7 °C 30.15in /  1020.9hPa Calm     97% 0in /  0mm meteobridge W/m2
02:04 64.8 °F /  18.2 °C 63.9 °F /  17.7 °C 30.14in /  1020.5hPa Calm     97% 0in /  0mm meteobridge W/m2
02:09 64.8 °F /  18.2 °C 63.9 °F /  17.7 °C 30.14in /  1020.5hPa Calm     97% 0in /  0mm meteobridge W/m2
02:14 64.8 °F /  18.2 °C 63.9 °F /  17.7 °C 30.14in /  1020.5hPa Calm     97% 0in /  0mm meteobridge W/m2
02:19 64.8 °F /  18.2 °C 63.9 °F /  17.7 °C 30.14in /  1020.5hPa Calm     97% 0in /  0mm meteobridge W/m2
02:24 64.8 °F /  18.2 °C 63.9 °F /  17.7 °C 30.14in /  1020.5hPa Calm     97% 0in /  0mm meteobridge W/m2
02:29 64.6 °F /  18.1 °C 63.7 °F /  17.6 °C 30.15in /  1020.9hPa Calm     97% 0in /  0mm meteobridge W/m2
02:34 64.6 °F /  18.1 °C 63.7 °F /  17.6 °C 30.15in /  1020.9hPa Calm     97% 0in /  0mm meteobridge W/m2
02:39 64.6 °F /  18.1 °C 63.7 °F /  17.6 °C 30.15in /  1020.9hPa Calm     97% 0in /  0mm meteobridge W/m2
02:44 64.4 °F /  18 °C 63.5 °F /  17.5 °C 30.15in /  1020.9hPa Calm     97% 0in /  0mm meteobridge W/m2
02:49 64.2 °F /  17.9 °C 63.3 °F /  17.4 °C 30.15in /  1020.9hPa Calm     97% 0in /  0mm meteobridge W/m2
02:54 64.2 °F /  17.9 °C 63.3 °F /  17.4 °C 30.15in /  1020.9hPa Calm     97% 0in /  0mm meteobridge W/m2
02:59 64.2 °F /  17.9 °C 63.3 °F /  17.4 °C 30.15in /  1020.9hPa Calm     97% 0in /  0mm meteobridge W/m2
03:04 64 °F /  17.8 °C 63.1 °F /  17.3 °C 30.15in /  1020.9hPa Calm     97% 0in /  0mm meteobridge W/m2
03:09 64 °F /  17.8 °C 63.1 °F /  17.3 °C 30.15in /  1020.9hPa Calm     97% 0in /  0mm meteobridge W/m2
03:14 63.9 °F /  17.7 °C 63 °F /  17.2 °C 30.15in /  1020.9hPa Calm     97% 0in /  0mm meteobridge W/m2
03:19 63.9 °F /  17.7 °C 63 °F /  17.2 °C 30.15in /  1020.9hPa Calm     97% 0in /  0mm meteobridge W/m2
03:24 63.9 °F /  17.7 °C 63 °F /  17.2 °C 30.15in /  1020.9hPa Calm     97% 0in /  0mm meteobridge W/m2
03:29 63.9 °F /  17.7 °C 63 °F /  17.2 °C 30.15in /  1020.9hPa Calm     97% 0in /  0mm meteobridge W/m2
03:34 63.9 °F /  17.7 °C 63 °F /  17.2 °C 30.15in /  1020.9hPa Calm     97% 0in /  0mm meteobridge W/m2
03:39 63.9 °F /  17.7 °C 63 °F /  17.2 °C 30.15in /  1020.9hPa Calm     97% 0in /  0mm meteobridge W/m2
03:44 63.9 °F /  17.7 °C 63 °F /  17.2 °C 30.15in /  1020.9hPa Calm     97% 0in /  0mm meteobridge W/m2
03:49 63.7 °F /  17.6 °C 62.8 °F /  17.1 °C 30.16in /  1021.2hPa Calm     97% 0in /  0mm meteobridge W/m2
03:54 63.7 °F /  17.6 °C 62.8 °F /  17.1 °C 30.16in /  1021.2hPa Calm     97% 0in /  0mm meteobridge W/m2
03:59 63.7 °F /  17.6 °C 62.8 °F /  17.1 °C 30.16in /  1021.2hPa Calm     97% 0in /  0mm meteobridge W/m2
04:04 63.7 °F /  17.6 °C 62.8 °F /  17.1 °C 30.15in /  1020.9hPa Calm     97% 0in /  0mm meteobridge W/m2
04:09 63.7 °F /  17.6 °C 62.8 °F /  17.1 °C 30.15in /  1020.9hPa Calm     97% 0in /  0mm meteobridge W/m2
04:14 63.5 °F /  17.5 °C 62.6 °F /  17 °C 30.16in /  1021.2hPa Calm     97% 0in /  0mm meteobridge W/m2
04:19 63.3 °F /  17.4 °C 62.4 °F /  16.9 °C 30.15in /  1020.9hPa Calm     97% 0in /  0mm meteobridge W/m2
04:24 63.3 °F /  17.4 °C 62.4 °F /  16.9 °C 30.15in /  1020.9hPa Calm     97% 0in /  0mm meteobridge W/m2
04:29 63.3 °F /  17.4 °C 62.4 °F /  16.9 °C 30.16in /  1021.2hPa Calm     97% 0in /  0mm meteobridge W/m2
04:34 63.3 °F /  17.4 °C 62.4 °F /  16.9 °C 30.16in /  1021.2hPa Calm     97% 0in /  0mm meteobridge W/m2
04:39 63.3 °F /  17.4 °C 62.4 °F /  16.9 °C 30.16in /  1021.2hPa Calm     97% 0in /  0mm meteobridge W/m2
04:44 63.1 °F /  17.3 °C 62.2 °F /  16.8 °C 30.16in /  1021.2hPa Calm     97% 0in /  0mm meteobridge W/m2
04:49 63.1 °F /  17.3 °C 62.2 °F /  16.8 °C 30.16in /  1021.2hPa Calm     97% 0in /  0mm meteobridge W/m2
04:54 63 °F /  17.2 °C 62.1 °F /  16.7 °C 30.16in /  1021.2hPa Calm     97% 0in /  0mm meteobridge W/m2
04:59 63 °F /  17.2 °C 62.1 °F /  16.7 °C 30.16in /  1021.2hPa Calm     97% 0in /  0mm meteobridge W/m2
05:04 62.8 °F /  17.1 °C 61.9 °F /  16.6 °C 30.16in /  1021.2hPa Calm     97% 0in /  0mm meteobridge W/m2
05:09 62.8 °F /  17.1 °C 61.9 °F /  16.6 °C 30.16in /  1021.2hPa Calm     97% 0in /  0mm meteobridge W/m2
05:14 62.8 °F /  17.1 °C 61.9 °F /  16.6 °C 30.17in /  1021.6hPa Calm     97% 0in /  0mm meteobridge W/m2
05:19 62.8 °F /  17.1 °C 61.9 °F /  16.6 °C 30.17in /  1021.6hPa Calm     97% 0in /  0mm meteobridge W/m2
05:24 62.8 °F /  17.1 °C 61.9 °F /  16.6 °C 30.17in /  1021.6hPa Calm     97% 0in /  0mm meteobridge W/m2
05:29 62.4 °F /  16.9 °C 61.5 °F /  16.4 °C 30.17in /  1021.6hPa Calm     97% 0in /  0mm meteobridge W/m2
05:34 62.4 °F /  16.9 °C 61.5 °F /  16.4 °C 30.17in /  1021.6hPa Calm     97% 0in /  0mm meteobridge W/m2
05:39 62.4 °F /  16.9 °C 61.5 °F /  16.4 °C 30.17in /  1021.6hPa Calm     97% 0in /  0mm meteobridge W/m2
05:44 62.2 °F /  16.8 °C 61.3 °F /  16.3 °C 30.17in /  1021.6hPa Calm     97% 0in /  0mm meteobridge W/m2
05:49 62.2 °F /  16.8 °C 61.3 °F /  16.3 °C 30.17in /  1021.6hPa Calm     97% 0in /  0mm meteobridge W/m2
05:54 62.2 °F /  16.8 °C 61.3 °F /  16.3 °C 30.17in /  1021.6hPa Calm     97% 0in /  0mm meteobridge W/m2
05:59 62.1 °F /  16.7 °C 61.2 °F /  16.2 °C 30.18in /  1021.9hPa Calm     97% 0in /  0mm meteobridge W/m2
06:04 62.1 °F /  16.7 °C 61.2 °F /  16.2 °C 30.18in /  1021.9hPa Calm     97% 0in /  0mm meteobridge W/m2
06:09 62.1 °F /  16.7 °C 61.2 °F /  16.2 °C 30.18in /  1021.9hPa Calm     97% 0in /  0mm meteobridge W/m2
06:14 62.1 °F /  16.7 °C 61.2 °F /  16.2 °C 30.18in /  1021.9hPa Calm     97% 0in /  0mm meteobridge W/m2
06:19 61.9 °F /  16.6 °C 61 °F /  16.1 °C 30.18in /  1021.9hPa Calm     97% 0in /  0mm meteobridge W/m2
06:24 61.9 °F /  16.6 °C 61 °F /  16.1 °C 30.18in /  1021.9hPa Calm     97% 0in /  0mm meteobridge W/m2
06:29 61.9 °F /  16.6 °C 61 °F /  16.1 °C 30.18in /  1021.9hPa Calm     97% 0in /  0mm meteobridge W/m2
06:34 61.7 °F /  16.5 °C 60.8 °F /  16 °C 30.19in /  1022.2hPa Calm     97% 0in /  0mm meteobridge W/m2
06:39 61.7 °F /  16.5 °C 60.8 °F /  16 °C 30.19in /  1022.2hPa Calm     97% 0in /  0mm meteobridge W/m2
06:44 61.5 °F /  16.4 °C 60.6 °F /  15.9 °C 30.19in /  1022.2hPa Calm     97% 0in /  0mm meteobridge W/m2
06:49 61.5 °F /  16.4 °C 60.6 °F /  15.9 °C 30.19in /  1022.2hPa Calm     97% 0in /  0mm meteobridge W/m2
06:54 61.3 °F /  16.3 °C 60.4 °F /  15.8 °C 30.19in /  1022.2hPa Calm     97% 0in /  0mm meteobridge W/m2
06:59 61.3 °F /  16.3 °C 60.4 °F /  15.8 °C 30.19in /  1022.2hPa Calm     97% 0in /  0mm meteobridge W/m2
07:04 61.3 °F /  16.3 °C 60.4 °F /  15.8 °C 30.19in /  1022.2hPa Calm     97% 0in /  0mm meteobridge W/m2
07:09 61.3 °F /  16.3 °C 60.4 °F /  15.8 °C 30.19in /  1022.2hPa Calm     97% 0in /  0mm meteobridge W/m2
07:14 61.3 °F /  16.3 °C 60.4 °F /  15.8 °C 30.19in /  1022.2hPa Calm     97% 0in /  0mm meteobridge W/m2
07:19 61.3 °F /  16.3 °C 60.8 °F /  16 °C 30.20in /  1022.6hPa Calm     98% 0in /  0mm meteobridge W/m2
07:24 61.5 °F /  16.4 °C 61 °F /  16.1 °C 30.20in /  1022.6hPa Calm     98% 0in /  0mm meteobridge W/m2
07:29 61.5 °F /  16.4 °C 61 °F /  16.1 °C 30.20in /  1022.6hPa Calm     98% 0in /  0mm meteobridge W/m2
07:34 61.9 °F /  16.6 °C 61.3 °F /  16.3 °C 30.20in /  1022.6hPa Calm     98% 0in /  0mm meteobridge W/m2
07:39 62.1 °F /  16.7 °C 61.5 °F /  16.4 °C 30.20in /  1022.6hPa Calm     98% 0in /  0mm meteobridge W/m2
07:44 62.2 °F /  16.8 °C 61.7 °F /  16.5 °C 30.20in /  1022.6hPa Calm     98% 0in /  0mm meteobridge W/m2
07:49 62.4 °F /  16.9 °C 61.9 °F /  16.6 °C 30.20in /  1022.6hPa Calm     98% 0in /  0mm meteobridge W/m2
07:54 62.8 °F /  17.1 °C 62.4 °F /  16.9 °C 30.20in /  1022.6hPa Calm     99% 0in /  0mm meteobridge W/m2
07:59 63 °F /  17.2 °C 62.6 °F /  17 °C 30.20in /  1022.6hPa Calm     99% 0in /  0mm meteobridge W/m2
08:04 63.1 °F /  17.3 °C 62.8 °F /  17.1 °C 30.20in /  1022.6hPa Calm     99% 0in /  0mm meteobridge W/m2
08:09 63.3 °F /  17.4 °C 63 °F /  17.2 °C 30.20in /  1022.6hPa Calm     99% 0in /  0mm meteobridge W/m2
08:14 63.7 °F /  17.6 °C 63.3 °F /  17.4 °C 30.20in /  1022.6hPa Calm     99% 0in /  0mm meteobridge W/m2
08:19 63.9 °F /  17.7 °C 63.5 °F /  17.5 °C 30.21in /  1022.9hPa Calm     99% 0in /  0mm meteobridge W/m2
08:24 64 °F /  17.8 °C 63.7 °F /  17.6 °C 30.21in /  1022.9hPa Calm     99% 0in /  0mm meteobridge W/m2
08:29 64.2 °F /  17.9 °C 63.9 °F /  17.7 °C 30.21in /  1022.9hPa Calm     99% 0in /  0mm meteobridge W/m2
08:34 64.6 °F /  18.1 °C 64.2 °F /  17.9 °C 30.21in /  1022.9hPa Calm     99% 0in /  0mm meteobridge W/m2
08:39 64.8 °F /  18.2 °C 64.2 °F /  17.9 °C 30.21in /  1022.9hPa Calm     98% 0in /  0mm meteobridge W/m2
08:44 65.1 °F /  18.4 °C 64.6 °F /  18.1 °C 30.21in /  1022.9hPa Calm     98% 0in /  0mm meteobridge W/m2
08:49 65.5 °F /  18.6 °C 65.1 °F /  18.4 °C 30.21in /  1022.9hPa Calm     99% 0in /  0mm meteobridge W/m2
08:54 65.8 °F /  18.8 °C 65.3 °F /  18.5 °C 30.21in /  1022.9hPa Calm     98% 0in /  0mm meteobridge W/m2
08:59 66.2 °F /  19 °C 65.7 °F /  18.7 °C 30.21in /  1022.9hPa Calm     98% 0in /  0mm meteobridge W/m2
09:04 66.6 °F /  19.2 °C 65.7 °F /  18.7 °C 30.22in /  1023.2hPa Calm     97% 0in /  0mm meteobridge W/m2
09:09 67.1 °F /  19.5 °C 66.2 °F /  19 °C 30.22in /  1023.2hPa Calm     97% 0in /  0mm meteobridge W/m2
09:14 67.5 °F /  19.7 °C 66.6 °F /  19.2 °C 30.22in /  1023.2hPa Calm     97% 0in /  0mm meteobridge W/m2
09:19 67.8 °F /  19.9 °C 66.6 °F /  19.2 °C 30.22in /  1023.2hPa Calm     96% 0in /  0mm meteobridge W/m2
09:24 68.5 °F /  20.3 °C 67.1 °F /  19.5 °C 30.22in /  1023.2hPa Calm     95% 0in /  0mm meteobridge W/m2
09:29 68.9 °F /  20.5 °C 67.5 °F /  19.7 °C 30.22in /  1023.2hPa Calm     95% 0in /  0mm meteobridge W/m2
09:34 69.6 °F /  20.9 °C 68.4 °F /  20.2 °C 30.21in /  1022.9hPa Calm     96% 0in /  0mm meteobridge W/m2
09:39 70.2 °F /  21.2 °C 68.9 °F /  20.5 °C 30.21in /  1022.9hPa Calm     96% 0in /  0mm meteobridge W/m2
09:44 70.5 °F /  21.4 °C 69.1 °F /  20.6 °C 30.21in /  1022.9hPa Calm     95% 0in /  0mm meteobridge W/m2
09:49 71.1 °F /  21.7 °C 69.3 °F /  20.7 °C 30.21in /  1022.9hPa Calm     94% 0in /  0mm meteobridge W/m2
09:54 71.4 °F /  21.9 °C 68.7 °F /  20.4 °C 30.21in /  1022.9hPa Calm   1mph /  1.6km/h 91% 0in /  0mm meteobridge W/m2
09:59 72 °F /  22.2 °C 70.2 °F /  21.2 °C 30.21in /  1022.9hPa Calm     94% 0in /  0mm meteobridge W/m2
10:04 72.3 °F /  22.4 °C 69.8 °F /  21 °C 30.21in /  1022.9hPa Calm     92% 0in /  0mm meteobridge W/m2
10:09 73 °F /  22.8 °C 69.6 °F /  20.9 °C 30.20in /  1022.6hPa Calm   3mph /  4.8km/h 89% 0in /  0mm meteobridge W/m2
10:14 73.6 °F /  23.1 °C 69.1 °F /  20.6 °C 30.20in /  1022.6hPa NNW 0.9mph /  1.4km/h 1mph /  1.6km/h 86% 0in /  0mm meteobridge W/m2
10:19 74.1 °F /  23.4 °C 70.3 °F /  21.3 °C 30.20in /  1022.6hPa Calm     88% 0in /  0mm meteobridge W/m2
10:24 74.7 °F /  23.7 °C 69.4 °F /  20.8 °C 30.19in /  1022.2hPa Calm   1mph /  1.6km/h 84% 0in /  0mm meteobridge W/m2
10:29 75 °F /  23.9 °C 70.9 °F /  21.6 °C 30.19in /  1022.2hPa Calm     87% 0in /  0mm meteobridge W/m2
10:34 75.2 °F /  24 °C 71.4 °F /  21.9 °C 30.19in /  1022.2hPa Calm     88% 0in /  0mm meteobridge W/m2
10:39 75.4 °F /  24.1 °C 72 °F /  22.2 °C 30.19in /  1022.2hPa Calm     89% 0in /  0mm meteobridge W/m2
10:44 75.4 °F /  24.1 °C 70.9 °F /  21.6 °C 30.19in /  1022.2hPa Calm     86% 0in /  0mm meteobridge W/m2
10:49 75.4 °F /  24.1 °C 70.5 °F /  21.4 °C 30.19in /  1022.2hPa Calm     85% 0in /  0mm meteobridge W/m2
10:54 75.6 °F /  24.2 °C 71.1 °F /  21.7 °C 30.19in /  1022.2hPa Calm     86% 0in /  0mm meteobridge W/m2
10:59 75.7 °F /  24.3 °C 70.5 °F /  21.4 °C 30.19in /  1022.2hPa Calm     84% 0in /  0mm meteobridge W/m2
11:04 76.3 °F /  24.6 °C 71.8 °F /  22.1 °C 30.19in /  1022.2hPa Calm     86% 0in /  0mm meteobridge W/m2
11:09 76.3 °F /  24.6 °C 71.1 °F /  21.7 °C 30.19in /  1022.2hPa Calm     84% 0in /  0mm meteobridge W/m2
11:14 76.5 °F /  24.7 °C 72 °F /  22.2 °C 30.20in /  1022.6hPa Calm     86% 0in /  0mm meteobridge W/m2
11:19 76.5 °F /  24.7 °C 70.9 °F /  21.6 °C 30.20in /  1022.6hPa Calm     83% 0in /  0mm meteobridge W/m2
11:24 76.5 °F /  24.7 °C 70.2 °F /  21.2 °C 30.20in /  1022.6hPa Calm     81% 0in /  0mm meteobridge W/m2
11:29 76.6 °F /  24.8 °C 70 °F /  21.1 °C 30.20in /  1022.6hPa Calm     80% 0in /  0mm meteobridge W/m2
11:34 76.6 °F /  24.8 °C 70 °F /  21.1 °C 30.21in /  1022.9hPa Calm     80% 0in /  0mm meteobridge W/m2
11:39 76.5 °F /  24.7 °C 70.9 °F /  21.6 °C 30.21in /  1022.9hPa Calm     83% 0in /  0mm meteobridge W/m2
11:44 76.3 °F /  24.6 °C 69.6 °F /  20.9 °C 30.21in /  1022.9hPa Calm     80% 0in /  0mm meteobridge W/m2
11:49 76.3 °F /  24.6 °C 70.7 °F /  21.5 °C 30.21in /  1022.9hPa Calm     83% 0in /  0mm meteobridge W/m2
11:54 76.3 °F /  24.6 °C 71.4 °F /  21.9 °C 30.21in /  1022.9hPa Calm     85% 0in /  0mm meteobridge W/m2
11:59 76.3 °F /  24.6 °C 70 °F /  21.1 °C 30.21in /  1022.9hPa Calm     81% 0in /  0mm meteobridge W/m2
12:04 76.5 °F /  24.7 °C 70.2 °F /  21.2 °C 30.21in /  1022.9hPa Calm     81% 0in /  0mm meteobridge W/m2
12:09 76.8 °F /  24.9 °C 70.5 °F /  21.4 °C 30.21in /  1022.9hPa Calm   2mph /  3.2km/h 81% 0in /  0mm meteobridge W/m2
12:14 77.2 °F /  25.1 °C 69.8 °F /  21 °C 30.22in /  1023.2hPa Calm     78% 0in /  0mm meteobridge W/m2
12:19 77.5 °F /  25.3 °C 70.5 °F /  21.4 °C 30.22in /  1023.2hPa Calm     79% 0in /  0mm meteobridge W/m2
12:24 77.7 °F /  25.4 °C 69.1 °F /  20.6 °C 30.21in /  1022.9hPa Calm   4mph /  6.4km/h 75% 0in /  0mm meteobridge W/m2
12:29 78.3 °F /  25.7 °C 69.3 °F /  20.7 °C 30.21in /  1022.9hPa NNE 2.9mph /  4.7km/h 3mph /  4.8km/h 74% 0in /  0mm meteobridge W/m2
12:34 78.6 °F /  25.9 °C 70.3 °F /  21.3 °C 30.21in /  1022.9hPa Calm     76% 0in /  0mm meteobridge W/m2
12:39 79.3 °F /  26.3 °C 69.4 °F /  20.8 °C 30.20in /  1022.6hPa Calm   1mph /  1.6km/h 72% 0in /  0mm meteobridge W/m2
12:44 79.9 °F /  26.6 °C 70.5 °F /  21.4 °C 30.20in /  1022.6hPa Calm     73% 0in /  0mm meteobridge W/m2
12:49 80.6 °F /  27 °C 70 °F /  21.1 °C 30.20in /  1022.6hPa WNW 0.9mph /  1.4km/h 4mph /  6.4km/h 70% 0in /  0mm meteobridge W/m2
12:54 81 °F /  27.2 °C 69.8 °F /  21 °C 30.20in /  1022.6hPa Calm   4mph /  6.4km/h 69% 0in /  0mm meteobridge W/m2
12:59 81.1 °F /  27.3 °C 70.3 °F /  21.3 °C 30.19in /  1022.2hPa Calm   1mph /  1.6km/h 70% 0in /  0mm meteobridge W/m2
13:04 81.3 °F /  27.4 °C 70.2 °F /  21.2 °C 30.19in /  1022.2hPa NW 0.9mph /  1.4km/h 1mph /  1.6km/h 69% 0in /  0mm meteobridge W/m2
13:09 81.3 °F /  27.4 °C 70.2 °F /  21.2 °C 30.19in /  1022.2hPa Calm     69% 0in /  0mm meteobridge W/m2
13:14 81.5 °F /  27.5 °C 70 °F /  21.1 °C 30.19in /  1022.2hPa Calm   2mph /  3.2km/h 68% 0in /  0mm meteobridge W/m2
13:19 82 °F /  27.8 °C 70 °F /  21.1 °C 30.19in /  1022.2hPa Calm   1mph /  1.6km/h 67% 0in /  0mm meteobridge W/m2
13:24 82.6 °F /  28.1 °C 70.5 °F /  21.4 °C 30.19in /  1022.2hPa Calm     67% 0in /  0mm meteobridge W/m2
13:29 82.8 °F /  28.2 °C 68.9 °F /  20.5 °C 30.19in /  1022.2hPa Calm     63% 0in /  0mm meteobridge W/m2
13:34 83.1 °F /  28.4 °C 70.2 °F /  21.2 °C 30.19in /  1022.2hPa NNE 0.9mph /  1.4km/h 1mph /  1.6km/h 65% 0in /  0mm meteobridge W/m2
13:39 83.7 °F /  28.7 °C 68.7 °F /  20.4 °C 30.19in /  1022.2hPa NNW 0.9mph /  1.4km/h 4mph /  6.4km/h 61% 0in /  0mm meteobridge W/m2
13:44 83.7 °F /  28.7 °C 68.4 °F /  20.2 °C 30.18in /  1021.9hPa NW 2.9mph /  4.7km/h 4mph /  6.4km/h 60% 0in /  0mm meteobridge W/m2
13:49 83.8 °F /  28.8 °C 68.5 °F /  20.3 °C 30.18in /  1021.9hPa Calm     60% 0in /  0mm meteobridge W/m2
13:54 84.2 °F /  29 °C 67.8 °F /  19.9 °C 30.18in /  1021.9hPa Calm     58% 0in /  0mm meteobridge W/m2
13:59 84.6 °F /  29.2 °C 64.4 °F /  18 °C 30.18in /  1021.9hPa Calm   2mph /  3.2km/h 51% 0in /  0mm meteobridge W/m2
14:04 84.6 °F /  29.2 °C 64.9 °F /  18.3 °C 30.18in /  1021.9hPa Calm   6mph /  9.7km/h 52% 0in /  0mm meteobridge W/m2
14:09 84.4 °F /  29.1 °C 65.8 °F /  18.8 °C 30.18in /  1021.9hPa Calm     54% 0in /  0mm meteobridge W/m2
14:14 84.6 °F /  29.2 °C 67.1 °F /  19.5 °C 30.17in /  1021.6hPa Calm   1mph /  1.6km/h 56% 0in /  0mm meteobridge W/m2
14:19 84.6 °F /  29.2 °C 69.1 °F /  20.6 °C 30.17in /  1021.6hPa Calm     60% 0in /  0mm meteobridge W/m2
14:24 84 °F /  28.9 °C 69.1 °F /  20.6 °C 30.17in /  1021.6hPa Calm   1mph /  1.6km/h 61% 0in /  0mm meteobridge W/m2
14:29 83.1 °F /  28.4 °C 66.4 °F /  19.1 °C 30.16in /  1021.2hPa Calm     57% 0in /  0mm meteobridge W/m2
14:34 83.3 °F /  28.5 °C 66.9 °F /  19.4 °C 30.16in /  1021.2hPa NNW 2mph /  3.2km/h 2mph /  3.2km/h 58% 0in /  0mm meteobridge W/m2
14:39 83.7 °F /  28.7 °C 67.3 °F /  19.6 °C 30.16in /  1021.2hPa Calm     58% 0in /  0mm meteobridge W/m2
14:44 83.8 °F /  28.8 °C 70 °F /  21.1 °C 30.16in /  1021.2hPa Calm     63% 0in /  0mm meteobridge W/m2
14:49 83.8 °F /  28.8 °C 70 °F /  21.1 °C 30.16in /  1021.2hPa Calm   1mph /  1.6km/h 63% 0in /  0mm meteobridge W/m2
14:54 83.5 °F /  28.6 °C 69.1 °F /  20.6 °C 30.16in /  1021.2hPa Calm     62% 0in /  0mm meteobridge W/m2
14:59 83.3 °F /  28.5 °C 70.3 °F /  21.3 °C 30.16in /  1021.2hPa Calm     65% 0in /  0mm meteobridge W/m2
15:04 83.1 °F /  28.4 °C 70.5 °F /  21.4 °C 30.16in /  1021.2hPa Calm     66% 0in /  0mm meteobridge W/m2
15:09 82.8 °F /  28.2 °C 68.4 °F /  20.2 °C 30.16in /  1021.2hPa Calm     62% 0in /  0mm meteobridge W/m2
15:14 82.6 °F /  28.1 °C 69.1 °F /  20.6 °C 30.16in /  1021.2hPa Calm     64% 0in /  0mm meteobridge W/m2
15:19 82.2 °F /  27.9 °C 67.8 °F /  19.9 °C 30.15in /  1020.9hPa Calm     62% 0in /  0mm meteobridge W/m2
15:24 82 °F /  27.8 °C 69.1 °F /  20.6 °C 30.15in /  1020.9hPa Calm     65% 0in /  0mm meteobridge W/m2
15:29 81.9 °F /  27.7 °C 67.6 °F /  19.8 °C 30.15in /  1020.9hPa Calm     62% 0in /  0mm meteobridge W/m2
15:34 81.7 °F /  27.6 °C 68.7 °F /  20.4 °C 30.15in /  1020.9hPa Calm     65% 0in /  0mm meteobridge W/m2
15:39 81.3 °F /  27.4 °C 69.8 °F /  21 °C 30.15in /  1020.9hPa Calm     68% 0in /  0mm meteobridge W/m2
15:44 81 °F /  27.2 °C 70.2 °F /  21.2 °C 30.15in /  1020.9hPa Calm     70% 0in /  0mm meteobridge W/m2
15:48 80.8 °F /  27.1 °C 71.2 °F /  21.8 °C 30.15in /  1020.9hPa Calm     73% 0in /  0mm meteobridge W/m2
15:54 80.4 °F /  26.9 °C 72.1 °F /  22.3 °C 30.15in /  1020.9hPa Calm     76% 0in /  0mm meteobridge W/m2
15:59 80.4 °F /  26.9 °C 72.5 °F /  22.5 °C 30.15in /  1020.9hPa Calm     77% 0in /  0mm meteobridge W/m2
16:04 80.2 °F /  26.8 °C 73 °F /  22.8 °C 30.15in /  1020.9hPa Calm     79% 0in /  0mm meteobridge W/m2
16:09 80.2 °F /  26.8 °C 73.6 °F /  23.1 °C 30.15in /  1020.9hPa Calm     80% 0in /  0mm meteobridge W/m2
16:14 80.1 °F /  26.7 °C 73.4 °F /  23 °C 30.15in /  1020.9hPa Calm     80% 0in /  0mm meteobridge W/m2
16:19 80.1 °F /  26.7 °C 73.4 °F /  23 °C 30.15in /  1020.9hPa Calm     80% 0in /  0mm meteobridge W/m2
16:24 80.1 °F /  26.7 °C 73.4 °F /  23 °C 30.15in /  1020.9hPa Calm     80% 0in /  0mm meteobridge W/m2
16:29 79.9 °F /  26.6 °C 72.9 °F /  22.7 °C 30.15in /  1020.9hPa Calm     79% 0in /  0mm meteobridge W/m2
16:34 79.7 °F /  26.5 °C 73.4 °F /  23 °C 30.15in /  1020.9hPa Calm     81% 0in /  0mm meteobridge W/m2
16:39 79.3 °F /  26.3 °C 73.4 °F /  23 °C 30.15in /  1020.9hPa Calm     82% 0in /  0mm meteobridge W/m2
16:44 79 °F /  26.1 °C 73.4 °F /  23 °C 30.15in /  1020.9hPa Calm     83% 0in /  0mm meteobridge W/m2
16:49 78.6 °F /  25.9 °C 73.4 °F /  23 °C 30.15in /  1020.9hPa Calm     84% 0in /  0mm meteobridge W/m2
16:54 78.4 °F /  25.8 °C 71.4 °F /  21.9 °C 30.15in /  1020.9hPa Calm     79% 0in /  0mm meteobridge W/m2
16:59 78.3 °F /  25.7 °C 72 °F /  22.2 °C 30.16in /  1021.2hPa Calm     81% 0in /  0mm meteobridge W/m2
17:04 78.3 °F /  25.7 °C 72 °F /  22.2 °C 30.16in /  1021.2hPa Calm     81% 0in /  0mm meteobridge W/m2
17:09 78.3 °F /  25.7 °C 72 °F /  22.2 °C 30.16in /  1021.2hPa Calm     81% 0in /  0mm meteobridge W/m2
17:14 78.1 °F /  25.6 °C 71.8 °F /  22.1 °C 30.16in /  1021.2hPa Calm     81% 0in /  0mm meteobridge W/m2
17:19 78.3 °F /  25.7 °C 72.3 °F /  22.4 °C 30.16in /  1021.2hPa Calm     82% 0in /  0mm meteobridge W/m2
17:24 78.3 °F /  25.7 °C 71.6 °F /  22 °C 30.15in /  1020.9hPa Calm     80% 0in /  0mm meteobridge W/m2
17:29 78.4 °F /  25.8 °C 72.5 °F /  22.5 °C 30.15in /  1020.9hPa Calm     82% 0in /  0mm meteobridge W/m2
17:34 78.4 °F /  25.8 °C 71.4 °F /  21.9 °C 30.15in /  1020.9hPa Calm     79% 0in /  0mm meteobridge W/m2
17:39 78.4 °F /  25.8 °C 72.1 °F /  22.3 °C 30.15in /  1020.9hPa Calm     81% 0in /  0mm meteobridge W/m2
17:44 78.4 °F /  25.8 °C 72.5 °F /  22.5 °C 30.15in /  1020.9hPa Calm     82% 0in /  0mm meteobridge W/m2
17:49 78.4 °F /  25.8 °C 71.4 °F /  21.9 °C 30.15in /  1020.9hPa Calm     79% 0in /  0mm meteobridge W/m2
17:54 78.4 °F /  25.8 °C 72.5 °F /  22.5 °C 30.15in /  1020.9hPa Calm     82% 0in /  0mm meteobridge W/m2
17:59 78.6 °F /  25.9 °C 73.4 °F /  23 °C 30.15in /  1020.9hPa Calm     84% 0in /  0mm meteobridge W/m2
18:04 78.6 °F /  25.9 °C 72.7 °F /  22.6 °C 30.15in /  1020.9hPa Calm     82% 0in /  0mm meteobridge W/m2
18:09 78.4 °F /  25.8 °C 73.2 °F /  22.9 °C 30.15in /  1020.9hPa Calm     84% 0in /  0mm meteobridge W/m2
18:14 78.4 °F /  25.8 °C 73.2 °F /  22.9 °C 30.15in /  1020.9hPa Calm     84% 0in /  0mm meteobridge W/m2
18:19 78.3 °F /  25.7 °C 73.8 °F /  23.2 °C 30.15in /  1020.9hPa Calm     86% 0in /  0mm meteobridge W/m2
18:24 78.3 °F /  25.7 °C 73.8 °F /  23.2 °C 30.15in /  1020.9hPa Calm     86% 0in /  0mm meteobridge W/m2
18:29 78.1 °F /  25.6 °C 73.2 °F /  22.9 °C 30.15in /  1020.9hPa Calm     85% 0in /  0mm meteobridge W/m2
18:34 78.1 °F /  25.6 °C 72.5 °F /  22.5 °C 30.15in /  1020.9hPa Calm     83% 0in /  0mm meteobridge W/m2
18:39 77.9 °F /  25.5 °C 72.7 °F /  22.6 °C 30.14in /  1020.5hPa Calm     84% 0in /  0mm meteobridge W/m2
18:44 77.9 °F /  25.5 °C 72.3 °F /  22.4 °C 30.14in /  1020.5hPa Calm     83% 0in /  0mm meteobridge W/m2
18:49 77.9 °F /  25.5 °C 72.3 °F /  22.4 °C 30.14in /  1020.5hPa Calm     83% 0in /  0mm meteobridge W/m2
18:54 77.7 °F /  25.4 °C 72.1 °F /  22.3 °C 30.14in /  1020.5hPa Calm     83% 0in /  0mm meteobridge W/m2
18:59 77.7 °F /  25.4 °C 72.5 °F /  22.5 °C 30.14in /  1020.5hPa Calm     84% 0in /  0mm meteobridge W/m2
19:04 77.5 °F /  25.3 °C 72.7 °F /  22.6 °C 30.14in /  1020.5hPa Calm     85% 0in /  0mm meteobridge W/m2
19:09 77.5 °F /  25.3 °C 72.3 °F /  22.4 °C 30.14in /  1020.5hPa Calm     84% 0in /  0mm meteobridge W/m2
19:14 77.4 °F /  25.2 °C 72.5 °F /  22.5 °C 30.14in /  1020.5hPa Calm     85% 0in /  0mm meteobridge W/m2
19:19 77.4 °F /  25.2 °C 73.2 °F /  22.9 °C 30.14in /  1020.5hPa Calm     87% 0in /  0mm meteobridge W/m2
19:24 77.2 °F /  25.1 °C 72.7 °F /  22.6 °C 30.14in /  1020.5hPa Calm     86% 0in /  0mm meteobridge W/m2
19:29 77 °F /  25 °C 72.5 °F /  22.5 °C 30.14in /  1020.5hPa Calm     86% 0in /  0mm meteobridge W/m2
19:34 76.8 °F /  24.9 °C 72.7 °F /  22.6 °C 30.15in /  1020.9hPa Calm     87% 0in /  0mm meteobridge W/m2
19:39 76.8 °F /  24.9 °C 73 °F /  22.8 °C 30.15in /  1020.9hPa Calm     88% 0in /  0mm meteobridge W/m2
19:44 76.6 °F /  24.8 °C 72.9 °F /  22.7 °C 30.15in /  1020.9hPa Calm     88% 0in /  0mm meteobridge W/m2
19:49 76.8 °F /  24.9 °C 73 °F /  22.8 °C 30.15in /  1020.9hPa Calm     88% 0in /  0mm meteobridge W/m2
19:54 76.6 °F /  24.8 °C 72.9 °F /  22.7 °C 30.15in /  1020.9hPa Calm     88% 0in /  0mm meteobridge W/m2
19:59 76.6 °F /  24.8 °C 72.9 °F /  22.7 °C 30.15in /  1020.9hPa Calm     88% 0in /  0mm meteobridge W/m2
20:04 76.5 °F /  24.7 °C 73 °F /  22.8 °C 30.15in /  1020.9hPa Calm     89% 0in /  0mm meteobridge W/m2
20:09 76.5 °F /  24.7 °C 73 °F /  22.8 °C 30.16in /  1021.2hPa Calm     89% 0in /  0mm meteobridge W/m2
20:14 76.3 °F /  24.6 °C 72.9 °F /  22.7 °C 30.16in /  1021.2hPa Calm     89% 0in /  0mm meteobridge W/m2
20:19 75.9 °F /  24.4 °C 72.9 °F /  22.7 °C 30.16in /  1021.2hPa Calm     90% 0in /  0mm meteobridge W/m2
20:24 75.9 °F /  24.4 °C 72.9 °F /  22.7 °C 30.16in /  1021.2hPa Calm     90% 0in /  0mm meteobridge W/m2
20:29 75.7 °F /  24.3 °C 72.7 °F /  22.6 °C 30.16in /  1021.2hPa Calm     90% 0in /  0mm meteobridge W/m2
20:34 75.4 °F /  24.1 °C 72.5 °F /  22.5 °C 30.16in /  1021.2hPa Calm     91% 0in /  0mm meteobridge W/m2
20:39 75.2 °F /  24 °C 72.3 °F /  22.4 °C 30.16in /  1021.2hPa Calm     91% 0in /  0mm meteobridge W/m2
20:44 74.8 °F /  23.8 °C 72 °F /  22.2 °C 30.16in /  1021.2hPa Calm     91% 0in /  0mm meteobridge W/m2
20:49 74.5 °F /  23.6 °C 71.6 °F /  22 °C 30.16in /  1021.2hPa Calm     91% 0in /  0mm meteobridge W/m2
20:54 74.3 °F /  23.5 °C 71.4 °F /  21.9 °C 30.16in /  1021.2hPa Calm     91% 0in /  0mm meteobridge W/m2
20:59 73.9 °F /  23.3 °C 71.4 °F /  21.9 °C 30.17in /  1021.6hPa Calm     92% 0in /  0mm meteobridge W/m2
21:04 73.6 °F /  23.1 °C 71.1 °F /  21.7 °C 30.17in /  1021.6hPa Calm     92% 0in /  0mm meteobridge W/m2
21:09 73.2 °F /  22.9 °C 71.1 °F /  21.7 °C 30.17in /  1021.6hPa Calm     93% 0in /  0mm meteobridge W/m2
21:14 73 °F /  22.8 °C 70.9 °F /  21.6 °C 30.17in /  1021.6hPa Calm     93% 0in /  0mm meteobridge W/m2
21:19 73 °F /  22.8 °C 70.9 °F /  21.6 °C 30.18in /  1021.9hPa Calm     93% 0in /  0mm meteobridge W/m2
21:24 72.9 °F /  22.7 °C 70.7 °F /  21.5 °C 30.17in /  1021.6hPa Calm     93% 0in /  0mm meteobridge W/m2
21:28 72.9 °F /  22.7 °C 71.1 °F /  21.7 °C 30.17in /  1021.6hPa Calm     94% 0in /  0mm meteobridge W/m2
21:34 72.7 °F /  22.6 °C 70.9 °F /  21.6 °C 30.17in /  1021.6hPa Calm     94% 0in /  0mm meteobridge W/m2
21:39 72.3 °F /  22.4 °C 70.5 °F /  21.4 °C 30.17in /  1021.6hPa Calm     94% 0in /  0mm meteobridge W/m2
21:44 72.1 °F /  22.3 °C 70.3 °F /  21.3 °C 30.18in /  1021.9hPa Calm     94% 0in /  0mm meteobridge W/m2
21:49 72 °F /  22.2 °C 70.2 °F /  21.2 °C 30.18in /  1021.9hPa Calm     94% 0in /  0mm meteobridge W/m2
21:54 71.8 °F /  22.1 °C 70 °F /  21.1 °C 30.18in /  1021.9hPa Calm     94% 0in /  0mm meteobridge W/m2
21:59 71.4 °F /  21.9 °C 69.6 °F /  20.9 °C 30.18in /  1021.9hPa Calm     94% 0in /  0mm meteobridge W/m2
22:04 71.4 °F /  21.9 °C 70 °F /  21.1 °C 30.18in /  1021.9hPa Calm     95% 0in /  0mm meteobridge W/m2
22:09 71.2 °F /  21.8 °C 69.8 °F /  21 °C 30.18in /  1021.9hPa Calm     95% 0in /  0mm meteobridge W/m2
22:14 71.2 °F /  21.8 °C 69.8 °F /  21 °C 30.18in /  1021.9hPa Calm     95% 0in /  0mm meteobridge W/m2
22:19 71.1 °F /  21.7 °C 69.6 °F /  20.9 °C 30.18in /  1021.9hPa Calm     95% 0in /  0mm meteobridge W/m2
22:24 71.1 °F /  21.7 °C 69.6 °F /  20.9 °C 30.19in /  1022.2hPa Calm     95% 0in /  0mm meteobridge W/m2
22:29 70.9 °F /  21.6 °C 69.4 °F /  20.8 °C 30.19in /  1022.2hPa Calm     95% 0in /  0mm meteobridge W/m2
22:34 70.9 °F /  21.6 °C 69.4 °F /  20.8 °C 30.19in /  1022.2hPa Calm     95% 0in /  0mm meteobridge W/m2
22:39 70.7 °F /  21.5 °C 69.3 °F /  20.7 °C 30.19in /  1022.2hPa Calm     95% 0in /  0mm meteobridge W/m2
22:44 70.5 °F /  21.4 °C 69.1 °F /  20.6 °C 30.19in /  1022.2hPa Calm     95% 0in /  0mm meteobridge W/m2
22:49 70.5 °F /  21.4 °C 69.1 °F /  20.6 °C 30.19in /  1022.2hPa Calm     95% 0in /  0mm meteobridge W/m2
22:54 70.3 °F /  21.3 °C 68.9 °F /  20.5 °C 30.20in /  1022.6hPa Calm     95% 0in /  0mm meteobridge W/m2
22:59 70.2 °F /  21.2 °C 68.7 °F /  20.4 °C 30.20in /  1022.6hPa Calm     95% 0in /  0mm meteobridge W/m2
23:04 70.2 °F /  21.2 °C 68.7 °F /  20.4 °C 30.20in /  1022.6hPa Calm     95% 0in /  0mm meteobridge W/m2
23:09 70 °F /  21.1 °C 68.5 °F /  20.3 °C 30.20in /  1022.6hPa Calm     95% 0in /  0mm meteobridge W/m2
23:14 69.8 °F /  21 °C 68.4 °F /  20.2 °C 30.20in /  1022.6hPa Calm     95% 0in /  0mm meteobridge W/m2
23:19 69.6 °F /  20.9 °C 68.4 °F /  20.2 °C 30.20in /  1022.6hPa Calm     96% 0in /  0mm meteobridge W/m2
23:24 69.6 °F /  20.9 °C 68.4 °F /  20.2 °C 30.21in /  1022.9hPa Calm     96% 0in /  0mm meteobridge W/m2
23:29 69.4 °F /  20.8 °C 68.2 °F /  20.1 °C 30.21in /  1022.9hPa Calm     96% 0in /  0mm meteobridge W/m2
23:34 69.3 °F /  20.7 °C 68 °F /  20 °C 30.21in /  1022.9hPa Calm     96% 0in /  0mm meteobridge W/m2
23:39 69.3 °F /  20.7 °C 67.8 °F /  19.9 °C 30.21in /  1022.9hPa Calm     95% 0in /  0mm meteobridge W/m2
23:44 69.1 °F /  20.6 °C 67.6 °F /  19.8 °C 30.21in /  1022.9hPa Calm     95% 0in /  0mm meteobridge W/m2
23:49 69.1 °F /  20.6 °C 67.6 °F /  19.8 °C 30.21in /  1022.9hPa Calm     95% 0in /  0mm meteobridge W/m2
23:54 68.7 °F /  20.4 °C 67.3 °F /  19.6 °C 30.21in /  1022.9hPa Calm     95% 0in /  0mm meteobridge W/m2
23:59 68.7 °F /  20.4 °C 67.5 °F /  19.7 °C 30.21in /  1022.9hPa Calm     96% 0in /  0mm meteobridge W/m2
EllijayWeather
Compliments of Weather Underground - 2.5 mb